Time;durP1;ratioP1;P1;durP2;ratioP2;P2;SDS_P1;SDS_P2;PMS_P1;PMS_P2;Temp;Humidity;BMP_temperature;BMP_pressure;BME280_temperature;BME280_humidity;BME280_pressure;Samples;Min_cycle;Max_cycle;Signal;HPM_P1;HPM_P2
2022/11/03 00:01:07;;;;;;;10.35;3.67;;;;;;;;;;5078376;28;20029;-55
2022/11/03 00:03:32;;;;;;;15.23;4.25;;;;;;;;;;5082832;28;20387;-56
2022/11/03 00:06:04;;;;;;;12.35;3.72;;;;;;;;;;5057446;28;20057;-56
2022/11/03 00:08:30;;;;;;;19.67;5.22;;;;;;;;;;5067537;28;20116;-57
2022/11/03 00:11:02;;;;;;;22.25;5.57;;;;;;;;;;5062443;28;20036;-56
2022/11/03 00:13:28;;;;;;;19.15;6.22;;;;;;;;;;5060144;28;20016;-56
2022/11/03 00:15:53;;;;;;;14.43;4.95;;;;;;;;;;5071454;28;20024;-57
2022/11/03 00:18:18;;;;;;;15.30;4.55;;;;;;;;;;5057222;28;20017;-57
2022/11/03 00:20:43;;;;;;;13.60;4.57;;;;;;;;;;5066432;28;20099;-56
2022/11/03 00:23:09;;;;;;;21.35;5.07;;;;;;;;;;5052174;28;20367;-56
2022/11/03 00:25:34;;;;;;;17.63;5.25;;;;;;;;;;5054876;28;20045;-56
2022/11/03 00:27:59;;;;;;;14.68;4.70;;;;;;;;;;5057882;28;20032;-56
2022/11/03 00:30:24;;;;;;;12.68;5.03;;;;;;;;;;5057771;28;20031;-56
2022/11/03 00:32:50;;;;;;;17.63;5.15;;;;;;;;;;5057782;28;20021;-57
2022/11/03 00:35:15;;;;;;;14.77;4.60;;;;;;;;;;5062390;28;20119;-56
2022/11/03 00:37:40;;;;;;;9.82;4.90;;;;;;;;;;5066496;28;20032;-56
2022/11/03 00:40:06;;;;;;;14.45;4.93;;;;;;;;;;5057379;28;20027;-56
2022/11/03 00:42:33;;;;;;;15.82;5.20;;;;;;;;;;5060641;28;20112;-57
2022/11/03 00:44:59;;;;;;;17.70;4.97;;;;;;;;;;5047008;28;20075;-57
2022/11/03 00:47:24;;;;;;;17.92;5.43;;;;;;;;;;5057200;28;20045;-56
2022/11/03 00:49:49;;;;;;;15.98;5.68;;;;;;;;;;5054694;28;20025;-56
2022/11/03 00:52:14;;;;;;;16.10;5.95;;;;;;;;;;5057577;28;20282;-55
2022/11/03 00:54:40;;;;;;;16.08;5.20;;;;;;;;;;5058591;28;20086;-56
2022/11/03 00:57:05;;;;;;;17.08;5.55;;;;;;;;;;5053477;28;20028;-57
2022/11/03 00:59:30;;;;;;;20.83;5.97;;;;;;;;;;5053236;28;20040;-57
2022/11/03 01:01:55;;;;;;;22.73;6.35;;;;;;;;;;5063843;28;20028;-57
2022/11/03 01:07:05;;;;;;;16.90;5.43;;;;;;;;;;5081472;28;20109;-57
2022/11/03 01:09:33;;;;;;;14.70;4.97;;;;;;;;;;5099471;28;20029;-55
2022/11/03 01:11:59;;;;;;;14.88;5.25;;;;;;;;;;5118434;27;20563;-56
2022/11/03 01:14:25;;;;;;;14.63;5.00;;;;;;;;;;5086012;28;20021;-57
2022/11/03 01:16:51;;;;;;;19.38;5.32;;;;;;;;;;5080941;28;20047;-56
2022/11/03 01:19:16;;;;;;;18.00;4.90;;;;;;;;;;5095980;28;20063;-56
2022/11/03 01:21:42;;;;;;;17.25;4.57;;;;;;;;;;5080769;28;20012;-56
2022/11/03 01:24:07;;;;;;;18.25;5.30;;;;;;;;;;5076384;28;20491;-57
2022/11/03 01:26:32;;;;;;;13.77;4.93;;;;;;;;;;5087666;28;20032;-57
2022/11/03 01:28:58;;;;;;;15.00;4.78;;;;;;;;;;5078193;28;20070;-56
2022/11/03 01:31:23;;;;;;;17.02;4.25;;;;;;;;;;5081703;28;20101;-57
2022/11/03 01:33:49;;;;;;;15.60;4.65;;;;;;;;;;5082038;28;20130;-56
2022/11/03 01:36:14;;;;;;;14.55;4.68;;;;;;;;;;5081421;28;20032;-57
2022/11/03 01:38:39;;;;;;;20.48;5.57;;;;;;;;;;5090382;28;20526;-57
2022/11/03 01:41:05;;;;;;;21.10;4.65;;;;;;;;;;5085744;28;20075;-57
2022/11/03 01:43:31;;;;;;;11.07;4.40;;;;;;;;;;5087503;28;20103;-57
2022/11/03 01:46:02;;;;;;;21.13;5.25;;;;;;;;;;5081414;28;20097;-57
2022/11/03 01:48:27;;;;;;;14.80;5.07;;;;;;;;;;5088342;28;20013;-57
2022/11/03 01:50:53;;;;;;;10.40;4.25;;;;;;;;;;5074671;28;20661;-57
2022/11/03 01:53:18;;;;;;;13.43;4.63;;;;;;;;;;5085081;28;20492;-57
2022/11/03 01:55:43;;;;;;;19.35;5.40;;;;;;;;;;5097212;28;20038;-56
2022/11/03 01:58:17;;;;;;;16.30;5.38;;;;;;;;;;5082205;28;20015;-56
2022/11/03 02:00:43;;;;;;;14.63;5.03;;;;;;;;;;5077047;28;20027;-57
2022/11/03 02:03:11;;;;;;;15.40;5.55;;;;;;;;;;5093685;27;20107;-57
2022/11/03 02:05:36;;;;;;;22.13;5.47;;;;;;;;;;5079103;28;20139;-56
2022/11/03 02:08:13;;;;;;;15.70;5.18;;;;;;;;;;5109825;27;20420;-56
2022/11/03 02:10:38;;;;;;;20.67;5.40;;;;;;;;;;5081407;28;20652;-57
2022/11/03 02:13:06;;;;;;;15.57;4.70;;;;;;;;;;5088523;28;20019;-57
2022/11/03 02:15:31;;;;;;;16.70;5.28;;;;;;;;;;5088264;28;20029;-57
2022/11/03 02:17:56;;;;;;;16.92;5.13;;;;;;;;;;5077292;28;20291;-57
2022/11/03 02:20:23;;;;;;;18.13;4.63;;;;;;;;;;5095387;27;20086;-55
2022/11/03 02:22:58;;;;;;;12.95;4.85;;;;;;;;;;5087334;28;20077;-57
2022/11/03 02:25:42;;;;;;;15.48;4.63;;;;;;;;;;5081393;28;20038;-57
2022/11/03 02:28:07;;;;;;;15.93;4.53;;;;;;;;;;5084197;28;20027;-57
2022/11/03 02:30:59;;;;;;;15.50;5.38;;;;;;;;;;5081990;28;20031;-57
2022/11/03 02:33:24;;;;;;;32.92;11.23;;;;;;;;;;5060232;28;20040;-57
2022/11/03 02:36:02;;;;;;;46.03;15.60;;;;;;;;;;5072703;28;20085;-57
2022/11/03 02:38:27;;;;;;;43.53;14.82;;;;;;;;;;5082410;28;20035;-57
2022/11/03 02:40:53;;;;;;;38.63;13.13;;;;;;;;;;5081570;28;20020;-56
2022/11/03 02:43:18;;;;;;;27.50;9.50;;;;;;;;;;5079566;28;20077;-55
2022/11/03 02:45:43;;;;;;;22.83;7.28;;;;;;;;;;5073663;28;20381;-57
2022/11/03 02:48:09;;;;;;;20.98;7.65;;;;;;;;;;5075789;28;20028;-56
2022/11/03 02:50:34;;;;;;;20.95;5.55;;;;;;;;;;5088506;28;20034;-57
2022/11/03 02:52:59;;;;;;;17.85;5.32;;;;;;;;;;5085464;28;20123;-56
2022/11/03 02:55:24;;;;;;;17.80;5.32;;;;;;;;;;5076324;28;20039;-56
2022/11/03 02:58:00;;;;;;;15.50;5.20;;;;;;;;;;5083171;28;20106;-57
2022/11/03 03:00:25;;;;;;;18.35;5.05;;;;;;;;;;5081929;28;20375;-56
2022/11/03 03:03:10;;;;;;;13.90;5.32;;;;;;;;;;5079095;28;20012;-55
2022/11/03 03:05:36;;;;;;;16.45;4.97;;;;;;;;;;5086664;28;20043;-56
2022/11/03 03:08:02;;;;;;;22.02;5.07;;;;;;;;;;5121711;27;20385;-56
2022/11/03 03:10:29;;;;;;;16.20;5.53;;;;;;;;;;5106019;27;20091;-56
2022/11/03 03:12:55;;;;;;;15.02;5.20;;;;;;;;;;5072270;28;20371;-57
2022/11/03 03:15:22;;;;;;;15.18;5.60;;;;;;;;;;5076682;28;20028;-56
2022/11/03 03:17:51;;;;;;;21.27;5.65;;;;;;;;;;5070765;28;20060;-56
2022/11/03 03:20:27;;;;;;;16.30;5.53;;;;;;;;;;5075802;28;20032;-56
2022/11/03 03:23:05;;;;;;;18.88;4.97;;;;;;;;;;5107651;27;20043;-55
2022/11/03 03:25:31;;;;;;;15.82;5.50;;;;;;;;;;5078119;28;20066;-57
2022/11/03 03:28:02;;;;;;;22.02;5.20;;;;;;;;;;5075940;28;20433;-56
2022/11/03 03:30:28;;;;;;;19.75;5.57;;;;;;;;;;5089387;28;20159;-56
2022/11/03 03:32:53;;;;;;;21.63;5.68;;;;;;;;;;5082636;28;20020;-57
2022/11/03 03:35:22;;;;;;;16.98;4.13;;;;;;;;;;5077121;28;20013;-56
2022/11/03 03:37:49;;;;;;;15.37;5.17;;;;;;;;;;5082589;28;20017;-56
2022/11/03 03:40:15;;;;;;;17.13;5.35;;;;;;;;;;5077586;28;20032;-56
2022/11/03 03:42:40;;;;;;;16.52;5.25;;;;;;;;;;5074628;28;20032;-56
2022/11/03 03:45:06;;;;;;;21.77;5.60;;;;;;;;;;5073152;28;20032;-56
2022/11/03 03:47:31;;;;;;;21.38;5.10;;;;;;;;;;5109189;27;20365;-57
2022/11/03 03:49:56;;;;;;;16.75;5.32;;;;;;;;;;5072685;28;20074;-57
2022/11/03 03:52:22;;;;;;;20.35;5.13;;;;;;;;;;5104638;27;20027;-55
2022/11/03 03:54:47;;;;;;;14.43;4.57;;;;;;;;;;5063107;28;20510;-57
2022/11/03 03:57:16;;;;;;;20.55;5.50;;;;;;;;;;5073971;28;20035;-56
2022/11/03 03:59:42;;;;;;;19.95;5.65;;;;;;;;;;5093600;28;20020;-56
2022/11/03 04:02:07;;;;;;;18.27;6.15;;;;;;;;;;5081338;28;20104;-56
2022/11/03 04:04:33;;;;;;;18.10;6.07;;;;;;;;;;5109711;27;20056;-57
2022/11/03 04:09:42;;;;;;;26.42;6.40;;;;;;;;;;5078487;28;20035;-57
2022/11/03 04:23:03;;;;;;;23.55;4.70;;;;;;;;;;5072513;28;20051;-56
2022/11/03 04:25:28;;;;;;;18.55;5.30;;;;;;;;;;5088782;28;20470;-56
2022/11/03 04:27:53;;;;;;;14.63;5.50;;;;;;;;;;5077628;28;20066;-56
2022/11/03 04:30:19;;;;;;;16.20;4.65;;;;;;;;;;5070433;28;20020;-56
2022/11/03 04:32:45;;;;;;;15.07;5.35;;;;;;;;;;5105618;28;20028;-56
2022/11/03 04:35:14;;;;;;;16.48;5.20;;;;;;;;;;5079465;28;20031;-56
2022/11/03 04:37:39;;;;;;;15.90;4.85;;;;;;;;;;5087201;28;20039;-56
2022/11/03 04:40:05;;;;;;;17.42;5.53;;;;;;;;;;5075228;28;20020;-57
2022/11/03 04:42:30;;;;;;;15.77;5.15;;;;;;;;;;5112269;27;20034;-57
2022/11/03 04:44:55;;;;;;;21.15;5.85;;;;;;;;;;5081267;28;20025;-56
2022/11/03 04:47:21;;;;;;;23.33;5.82;;;;;;;;;;5125060;27;20098;-56
2022/11/03 04:49:46;;;;;;;14.15;5.35;;;;;;;;;;5074450;28;20063;-56
2022/11/03 04:52:20;;;;;;;16.90;5.65;;;;;;;;;;5079880;28;20055;-55
2022/11/03 04:54:46;;;;;;;16.67;5.35;;;;;;;;;;5081417;28;20022;-57
2022/11/03 04:57:13;;;;;;;16.95;5.38;;;;;;;;;;5070814;28;20103;-55
2022/11/03 04:59:38;;;;;;;22.42;5.78;;;;;;;;;;5079051;28;20027;-55
2022/11/03 05:02:07;;;;;;;14.35;5.93;;;;;;;;;;5084867;28;20055;-56
2022/11/03 05:04:32;;;;;;;14.93;6.43;;;;;;;;;;5117832;27;20514;-57
2022/11/03 05:06:57;;;;;;;17.33;6.25;;;;;;;;;;5082757;28;20071;-55
2022/11/03 05:09:24;;;;;;;15.27;5.28;;;;;;;;;;5087486;28;20558;-55
2022/11/03 05:11:49;;;;;;;27.73;5.88;;;;;;;;;;5080589;28;20032;-55
2022/11/03 05:14:15;;;;;;;18.05;5.63;;;;;;;;;;5082542;28;20024;-55
2022/11/03 05:16:41;;;;;;;21.35;6.60;;;;;;;;;;5082218;28;20160;-55
2022/11/03 05:19:19;;;;;;;23.33;6.35;;;;;;;;;;5087939;28;20130;-55
2022/11/03 05:21:47;;;;;;;19.27;5.53;;;;;;;;;;5076261;28;20055;-55
2022/11/03 05:24:13;;;;;;;21.75;6.60;;;;;;;;;;5083652;28;20055;-57
2022/11/03 05:26:38;;;;;;;23.73;6.55;;;;;;;;;;5077947;28;20032;-55
2022/11/03 05:29:12;;;;;;;21.55;6.65;;;;;;;;;;5089293;28;20071;-56
2022/11/03 05:31:37;;;;;;;20.77;6.43;;;;;;;;;;5116868;27;20087;-57
2022/11/03 05:34:10;;;;;;;19.23;5.70;;;;;;;;;;5089196;28;20028;-54
2022/11/03 05:36:35;;;;;;;20.05;6.65;;;;;;;;;;5083115;28;20059;-56
2022/11/03 05:39:04;;;;;;;20.63;6.15;;;;;;;;;;5086456;28;20048;-55
2022/11/03 05:41:29;;;;;;;14.70;5.63;;;;;;;;;;5108561;27;20099;-56
2022/11/03 05:43:56;;;;;;;23.40;5.45;;;;;;;;;;5081493;28;20123;-55
2022/11/03 05:46:21;;;;;;;17.15;5.60;;;;;;;;;;5081567;28;20135;-54
2022/11/03 05:48:48;;;;;;;14.23;5.47;;;;;;;;;;5080604;28;20430;-54
2022/11/03 05:51:20;;;;;;;20.05;5.82;;;;;;;;;;5076349;28;20507;-57
2022/11/03 05:53:46;;;;;;;16.92;5.88;;;;;;;;;;5113013;27;20016;-57
2022/11/03 05:56:14;;;;;;;18.27;6.38;;;;;;;;;;5085542;28;20073;-57
2022/11/03 05:58:40;;;;;;;18.15;5.78;;;;;;;;;;5080760;28;20028;-57
2022/11/03 06:01:14;;;;;;;22.63;6.07;;;;;;;;;;5078518;28;20022;-57
2022/11/03 06:03:39;;;;;;;19.00;6.35;;;;;;;;;;5085153;28;20028;-56
2022/11/03 06:06:10;;;;;;;19.98;6.88;;;;;;;;;;5086347;28;20031;-56
2022/11/03 06:08:35;;;;;;;;;;;;;;;;;;5091978;28;20108;-56
2022/11/03 06:11:01;;;;;;;17.13;5.93;;;;;;;;;;5086132;28;20007;-56
2022/11/03 06:13:33;;;;;;;17.17;5.47;;;;;;;;;;5085994;28;20028;-56
2022/11/03 06:16:02;;;;;;;19.13;6.18;;;;;;;;;;5082915;28;20024;-57
2022/11/03 06:18:35;;;;;;;21.60;6.80;;;;;;;;;;5088900;28;20308;-57
2022/11/03 06:21:08;;;;;;;17.50;6.40;;;;;;;;;;5112853;27;20039;-56
2022/11/03 06:23:33;;;;;;;17.80;6.25;;;;;;;;;;5078398;28;20096;-56
2022/11/03 06:26:01;;;;;;;17.58;6.45;;;;;;;;;;5081151;28;20142;-55
2022/11/03 06:28:28;;;;;;;16.50;5.88;;;;;;;;;;5083050;28;20028;-56
2022/11/03 06:30:53;;;;;;;14.35;5.68;;;;;;;;;;5072117;28;20101;-56
2022/11/03 06:33:22;;;;;;;18.55;6.53;;;;;;;;;;5087136;28;20486;-56
2022/11/03 06:35:48;;;;;;;26.98;6.22;;;;;;;;;;5082755;28;20024;-57
2022/11/03 06:38:20;;;;;;;19.50;6.65;;;;;;;;;;5086774;28;20019;-57
2022/11/03 06:40:47;;;;;;;18.90;5.68;;;;;;;;;;5078499;28;20075;-56
2022/11/03 06:43:17;;;;;;;24.65;6.88;;;;;;;;;;5078550;28;20035;-56
2022/11/03 06:45:42;;;;;;;;;;;;;;;;;;5080062;28;20036;-56
2022/11/03 06:48:09;;;;;;;20.15;7.22;;;;;;;;;;5082033;28;19919;-56
2022/11/03 06:50:35;;;;;;;24.48;7.20;;;;;;;;;;5124001;27;20360;-56
2022/11/03 06:53:01;;;;;;;22.65;7.75;;;;;;;;;;5075217;28;20479;-57
2022/11/03 06:55:27;;;;;;;17.60;6.65;;;;;;;;;;5092679;27;20032;-57
2022/11/03 06:57:54;;;;;;;17.30;6.70;;;;;;;;;;5071267;28;20034;-56
2022/11/03 07:00:20;;;;;;;19.67;7.22;;;;;;;;;;5076531;28;20051;-57
2022/11/03 07:02:56;;;;;;;14.65;6.10;;;;;;;;;;5087034;28;20027;-57
2022/11/03 07:05:22;;;;;;;20.20;7.93;;;;;;;;;;5081756;28;20035;-57
2022/11/03 07:07:48;;;;;;;19.33;7.47;;;;;;;;;;5093953;28;20024;-57
2022/11/03 07:10:13;;;;;;;26.77;8.77;;;;;;;;;;5074020;28;20322;-57
2022/11/03 07:12:39;;;;;;;38.45;9.88;;;;;;;;;;5081438;28;20023;-56
2022/11/03 07:15:06;;;;;;;27.48;9.20;;;;;;;;;;5089579;28;20024;-56
2022/11/03 07:17:31;;;;;;;22.92;7.22;;;;;;;;;;5078319;28;20016;-55
2022/11/03 07:19:56;;;;;;;17.52;6.70;;;;;;;;;;5088987;28;20024;-56
2022/11/03 07:22:22;;;;;;;14.70;6.03;;;;;;;;;;5075188;28;20074;-56
2022/11/03 07:24:48;;;;;;;15.00;6.18;;;;;;;;;;5087328;28;20020;-56
2022/11/03 07:27:24;;;;;;;18.23;5.88;;;;;;;;;;5077641;28;20769;-57
2022/11/03 07:29:49;;;;;;;15.05;5.68;;;;;;;;;;5078125;28;20558;-56
2022/11/03 07:32:15;;;;;;;19.98;6.50;;;;;;;;;;5082983;28;20081;-57
2022/11/03 07:34:40;;;;;;;19.80;9.45;;;;;;;;;;5064179;28;20016;-56
2022/11/03 07:37:10;;;;;;;24.25;8.30;;;;;;;;;;5087301;28;20643;-56
2022/11/03 07:39:36;;;;;;;19.55;8.50;;;;;;;;;;5112652;27;20090;-56
2022/11/03 07:42:02;;;;;;;31.52;9.02;;;;;;;;;;5077430;28;20024;-55
2022/11/03 07:44:27;;;;;;;21.63;8.02;;;;;;;;;;5085150;28;20028;-56
2022/11/03 07:46:52;;;;;;;29.58;7.05;;;;;;;;;;5103049;27;20597;-56
2022/11/03 07:49:27;;;;;;;27.92;7.00;;;;;;;;;;5082926;28;20420;-56
2022/11/03 07:51:53;;;;;;;20.25;6.88;;;;;;;;;;5080097;28;20035;-56
2022/11/03 07:54:19;;;;;;;30.33;8.20;;;;;;;;;;5114077;27;20024;-57
2022/11/03 07:56:46;;;;;;;15.82;6.43;;;;;;;;;;5087688;28;20020;-57
2022/11/03 07:59:19;;;;;;;26.85;7.70;;;;;;;;;;5078461;28;20137;-57
2022/11/03 08:01:50;;;;;;;20.70;7.90;;;;;;;;;;5072563;28;20032;-56
2022/11/03 08:04:16;;;;;;;17.88;8.05;;;;;;;;;;5082162;28;20040;-56
2022/11/03 08:06:42;;;;;;;26.00;8.95;;;;;;;;;;5105287;27;20051;-57
2022/11/03 08:09:07;;;;;;;27.17;11.93;;;;;;;;;;5077076;28;20020;-55
2022/11/03 08:11:32;;;;;;;26.67;11.90;;;;;;;;;;5088005;28;20035;-57
2022/11/03 08:13:57;;;;;;;21.90;10.38;;;;;;;;;;5084642;28;20591;-57
2022/11/03 08:16:23;;;;;;;27.35;10.88;;;;;;;;;;5080677;28;20019;-57
2022/11/03 08:18:48;;;;;;;22.40;8.88;;;;;;;;;;5095252;28;20048;-56
2022/11/03 08:21:13;;;;;;;27.42;8.23;;;;;;;;;;5076637;28;20123;-57
2022/11/03 08:23:38;;;;;;;23.60;8.32;;;;;;;;;;5075388;28;20018;-57
2022/11/03 08:26:04;;;;;;;21.65;8.07;;;;;;;;;;5072186;28;20024;-56
2022/11/03 08:28:29;;;;;;;16.42;7.40;;;;;;;;;;5091134;28;20409;-56
2022/11/03 08:31:00;;;;;;;14.18;5.32;;;;;;;;;;5087155;28;20469;-56
2022/11/03 08:33:25;;;;;;;;;;;;;;;;;;5078869;28;20613;-56
2022/11/03 08:35:50;;;;;;;15.93;4.80;;;;;;;;;;5086577;28;20357;-56
2022/11/03 08:38:15;;;;;;;19.55;8.68;;;;;;;;;;5074118;28;20017;-56
2022/11/03 08:40:41;;;;;;;29.77;8.10;;;;;;;;;;5076924;28;20077;-56
2022/11/03 08:43:06;;;;;;;26.17;10.43;;;;;;;;;;5082240;28;20024;-55
2022/11/03 08:45:31;;;;;;;24.13;8.68;;;;;;;;;;5078093;28;20473;-56
2022/11/03 08:47:56;;;;;;;21.10;8.52;;;;;;;;;;5085975;28;20511;-56
2022/11/03 08:50:22;;;;;;;20.88;7.97;;;;;;;;;;5078236;28;20511;-55
2022/11/03 08:52:48;;;;;;;20.52;8.32;;;;;;;;;;5090263;28;20023;-57
2022/11/03 08:55:13;;;;;;;20.95;6.82;;;;;;;;;;5075590;28;20389;-56
2022/11/03 08:57:38;;;;;;;17.10;6.43;;;;;;;;;;5084159;28;20024;-57
2022/11/03 09:00:04;;;;;;;21.25;6.38;;;;;;;;;;5076625;28;20020;-56
2022/11/03 09:02:30;;;;;;;19.25;6.20;;;;;;;;;;5075825;28;20021;-56
2022/11/03 09:04:55;;;;;;;16.05;5.88;;;;;;;;;;5093342;28;20059;-56
2022/11/03 09:07:20;;;;;;;20.10;5.95;;;;;;;;;;5086682;28;20091;-56
2022/11/03 09:09:45;;;;;;;18.23;5.78;;;;;;;;;;5081771;28;20027;-56
2022/11/03 09:12:10;;;;;;;17.05;5.65;;;;;;;;;;5076570;28;20024;-55
2022/11/03 09:14:36;;;;;;;26.35;5.88;;;;;;;;;;5071812;28;20570;-56
2022/11/03 09:17:01;;;;;;;20.45;6.30;;;;;;;;;;5070728;28;20554;-57
2022/11/03 09:19:26;;;;;;;35.80;7.05;;;;;;;;;;5069179;28;20028;-57
2022/11/03 09:21:51;;;;;;;33.72;7.38;;;;;;;;;;5072810;28;20135;-56
2022/11/03 09:24:17;;;;;;;53.03;7.72;;;;;;;;;;5072579;28;20521;-55
2022/11/03 09:26:43;;;;;;;39.95;7.15;;;;;;;;;;5085831;28;20139;-56
2022/11/03 09:29:08;;;;;;;30.27;6.45;;;;;;;;;;5081211;28;21743;-56
2022/11/03 09:31:33;;;;;;;36.28;7.60;;;;;;;;;;5089537;28;20112;-56
2022/11/03 09:33:58;;;;;;;38.45;7.78;;;;;;;;;;5084032;28;20088;-56
2022/11/03 09:36:23;;;;;;;41.20;8.25;;;;;;;;;;5080368;28;20281;-56
2022/11/03 09:38:49;;;;;;;47.35;8.27;;;;;;;;;;5081438;28;20029;-56
2022/11/03 09:41:16;;;;;;;50.05;8.20;;;;;;;;;;5072453;28;20035;-56
2022/11/03 09:43:44;;;;;;;54.85;8.13;;;;;;;;;;5080722;28;20020;-56
2022/11/03 09:46:10;;;;;;;51.47;7.53;;;;;;;;;;5085552;28;20035;-56
2022/11/03 09:48:35;;;;;;;36.17;7.20;;;;;;;;;;5076074;28;20044;-57
2022/11/03 09:51:00;;;;;;;42.63;7.30;;;;;;;;;;5078729;28;20024;-56
2022/11/03 09:53:26;;;;;;;38.40;6.63;;;;;;;;;;5081298;28;20381;-56
2022/11/03 09:55:51;;;;;;;36.65;7.32;;;;;;;;;;5082534;28;20020;-55
2022/11/03 09:58:16;;;;;;;49.30;7.50;;;;;;;;;;5086607;28;20054;-56
2022/11/03 10:00:41;;;;;;;42.00;6.63;;;;;;;;;;5080868;28;20032;-56
2022/11/03 10:03:14;;;;;;;26.75;6.50;;;;;;;;;;5086510;28;20016;-57
2022/11/03 10:05:39;;;;;;;40.78;7.32;;;;;;;;;;5084433;28;20226;-57
2022/11/03 10:08:06;;;;;;;39.65;7.63;;;;;;;;;;5089841;28;20025;-57
2022/11/03 10:10:31;;;;;;;45.78;7.63;;;;;;;;;;5084214;28;20024;-56
2022/11/03 10:12:56;;;;;;;34.30;7.05;;;;;;;;;;5084971;28;20099;-57
2022/11/03 10:15:22;;;;;;;34.80;8.00;;;;;;;;;;5080272;28;20028;-56
2022/11/03 10:17:49;;;;;;;48.15;8.07;;;;;;;;;;5095050;28;20601;-56
2022/11/03 10:20:15;;;;;;;32.00;6.90;;;;;;;;;;5081889;28;20024;-55
2022/11/03 10:22:41;;;;;;;37.08;7.63;;;;;;;;;;5086443;28;20012;-57
2022/11/03 10:25:25;;;;;;;61.17;8.57;;;;;;;;;;5090684;28;20042;-57
2022/11/03 10:27:50;;;;;;;36.70;7.93;;;;;;;;;;5077717;28;20043;-55
2022/11/03 10:30:15;;;;;;;41.65;8.18;;;;;;;;;;5074240;28;20712;-57
2022/11/03 10:32:41;;;;;;;29.75;6.78;;;;;;;;;;5087661;28;20034;-56
2022/11/03 10:35:25;;;;;;;29.33;7.47;;;;;;;;;;5077332;28;20028;-57
2022/11/03 10:37:50;;;;;;;29.83;6.82;;;;;;;;;;5087016;28;20055;-56
2022/11/03 10:40:32;;;;;;;39.60;8.20;;;;;;;;;;5119209;27;20044;-57
2022/11/03 10:42:57;;;;;;;37.35;6.95;;;;;;;;;;5069210;28;20047;-57
2022/11/03 10:45:23;;;;;;;54.33;8.23;;;;;;;;;;5080970;28;20459;-56
2022/11/03 10:47:58;;;;;;;35.15;7.85;;;;;;;;;;5082150;28;20076;-56
2022/11/03 10:50:24;;;;;;;28.85;7.75;;;;;;;;;;5090492;28;20020;-57
2022/11/03 10:52:50;;;;;;;35.50;6.95;;;;;;;;;;5098084;27;20451;-56
2022/11/03 10:55:15;;;;;;;31.52;7.68;;;;;;;;;;5108369;27;20112;-56
2022/11/03 10:57:40;;;;;;;12.68;4.78;;;;;;;;;;5075115;28;20063;-55
2022/11/03 11:00:08;;;;;;;9.20;4.75;;;;;;;;;;5079421;28;20063;-56
2022/11/03 11:02:35;;;;;;;16.83;4.90;;;;;;;;;;5087774;28;20025;-57
2022/11/03 11:05:01;;;;;;;11.38;5.28;;;;;;;;;;5087003;28;20051;-55
2022/11/03 11:07:39;;;;;;;15.10;5.00;;;;;;;;;;5083729;28;20028;-56
2022/11/03 11:10:10;;;;;;;10.25;4.78;;;;;;;;;;5083506;28;20024;-56
2022/11/03 11:12:35;;;;;;;11.73;5.30;;;;;;;;;;5084884;28;20056;-56
2022/11/03 11:15:01;;;;;;;13.70;5.32;;;;;;;;;;5082394;28;20032;-56
2022/11/03 11:17:35;;;;;;;15.00;5.88;;;;;;;;;;5109352;27;20030;-55
2022/11/03 11:20:23;;;;;;;15.80;5.32;;;;;;;;;;5077129;28;20012;-56
2022/11/03 11:22:48;;;;;;;15.18;5.10;;;;;;;;;;5081872;28;20023;-55
2022/11/03 11:25:13;;;;;;;13.45;5.50;;;;;;;;;;5085838;28;20036;-57
2022/11/03 11:27:39;;;;;;;13.43;5.22;;;;;;;;;;5077739;28;20063;-57
2022/11/03 11:30:06;;;;;;;13.68;4.80;;;;;;;;;;5088638;28;20084;-56
2022/11/03 11:32:37;;;;;;;15.25;5.25;;;;;;;;;;5085291;28;20031;-57
2022/11/03 11:35:02;;;;;;;12.05;5.20;;;;;;;;;;5076603;28;20016;-56
2022/11/03 11:37:28;;;;;;;10.93;5.30;;;;;;;;;;5082959;28;20025;-58
2022/11/03 11:39:53;;;;;;;13.40;5.20;;;;;;;;;;5083158;28;20035;-56
2022/11/03 11:42:18;;;;;;;13.80;5.00;;;;;;;;;;5082055;28;20034;-57
2022/11/03 11:44:52;;;;;;;13.95;5.60;;;;;;;;;;5095753;28;20381;-57
2022/11/03 11:47:29;;;;;;;13.45;4.97;;;;;;;;;;5078896;28;20488;-56
2022/11/03 11:50:10;;;;;;;10.43;4.88;;;;;;;;;;5091108;28;20020;-56
2022/11/03 11:52:54;;;;;;;13.93;4.88;;;;;;;;;;5083985;28;20056;-57
2022/11/03 11:55:27;;;;;;;12.55;4.38;;;;;;;;;;5087439;28;20519;-56
2022/11/03 11:57:53;;;;;;;15.35;3.97;;;;;;;;;;5084385;28;20015;-56
2022/11/03 12:00:19;;;;;;;10.00;4.40;;;;;;;;;;5109741;27;20070;-58
2022/11/03 12:02:44;;;;;;;9.48;3.88;;;;;;;;;;5081210;28;20325;-57
2022/11/03 12:05:16;;;;;;;9.77;3.63;;;;;;;;;;5100314;27;20043;-57
2022/11/03 12:07:41;;;;;;;9.10;3.30;;;;;;;;;;5118998;27;20026;-56
2022/11/03 12:10:08;;;;;;;12.55;3.40;;;;;;;;;;5079117;28;20020;-56
2022/11/03 12:12:34;;;;;;;9.48;3.15;;;;;;;;;;5108761;27;20028;-56
2022/11/03 12:14:59;;;;;;;10.85;3.20;;;;;;;;;;5085168;28;20092;-57
2022/11/03 12:17:24;;;;;;;9.18;3.53;;;;;;;;;;5079134;28;20020;-56
2022/11/03 12:19:50;;;;;;;9.00;3.60;;;;;;;;;;5072168;28;20487;-56
2022/11/03 12:22:28;;;;;;;10.98;3.65;;;;;;;;;;5093150;28;21001;-57
2022/11/03 12:24:53;;;;;;;8.18;3.13;;;;;;;;;;5070022;28;20397;-55
2022/11/03 12:27:24;;;;;;;10.35;3.03;;;;;;;;;;5078888;28;20020;-56
2022/11/03 12:29:50;;;;;;;6.35;2.72;;;;;;;;;;5083083;28;20028;-56
2022/11/03 12:32:15;;;;;;;7.13;3.17;;;;;;;;;;5074961;28;20027;-56
2022/11/03 12:34:41;;;;;;;11.02;2.90;;;;;;;;;;5083402;28;20030;-57
2022/11/03 12:37:07;;;;;;;7.63;3.05;;;;;;;;;;5079368;28;20230;-56
2022/11/03 12:39:32;;;;;;;9.27;3.45;;;;;;;;;;5087412;28;20359;-55
2022/11/03 12:41:57;;;;;;;6.07;2.75;;;;;;;;;;5082551;28;20019;-56
2022/11/03 12:44:22;;;;;;;7.80;2.80;;;;;;;;;;5069989;28;20382;-55
2022/11/03 12:46:48;;;;;;;8.57;2.70;;;;;;;;;;5086654;28;20371;-56
2022/11/03 12:49:13;;;;;;;7.80;2.90;;;;;;;;;;5073345;28;20448;-56
2022/11/03 12:51:38;;;;;;;8.00;3.03;;;;;;;;;;5080663;28;20051;-56
2022/11/03 12:54:03;;;;;;;8.10;3.10;;;;;;;;;;5078525;28;20024;-56
2022/11/03 12:56:29;;;;;;;8.13;3.33;;;;;;;;;;5079305;28;20020;-56
2022/11/03 12:58:54;;;;;;;7.43;2.83;;;;;;;;;;5072956;28;20054;-56
2022/11/03 13:01:19;;;;;;;7.32;3.10;;;;;;;;;;5107755;27;20577;-56
2022/11/03 13:03:44;;;;;;;8.98;3.13;;;;;;;;;;5086154;28;20054;-56
2022/11/03 13:06:13;;;;;;;4.40;2.30;;;;;;;;;;5075464;28;20068;-55
2022/11/03 13:08:38;;;;;;;8.23;3.22;;;;;;;;;;5086619;28;20026;-55
2022/11/03 13:12:29;;;;;;;7.95;3.88;;;;;;;;;;5077217;28;20020;-56
2022/11/03 13:13:49;;;;;;;9.82;3.30;;;;;;;;;;5081098;28;20077;-56
2022/11/03 13:16:14;;;;;;;8.63;3.15;;;;;;;;;;5086237;28;20342;-56
2022/11/03 13:18:39;;;;;;;4.82;2.53;;;;;;;;;;5077926;28;20412;-56
2022/11/03 13:21:05;;;;;;;9.32;3.47;;;;;;;;;;5086588;28;20133;-55
2022/11/03 13:23:30;;;;;;;7.10;2.80;;;;;;;;;;5080695;28;20035;-57
2022/11/03 13:25:55;;;;;;;10.82;3.28;;;;;;;;;;5094346;28;20489;-59
2022/11/03 13:28:21;;;;;;;7.65;3.53;;;;;;;;;;5085644;28;20732;-57
2022/11/03 13:30:49;;;;;;;8.48;3.03;;;;;;;;;;5081722;28;20026;-58
2022/11/03 13:33:15;;;;;;;7.55;2.72;;;;;;;;;;5114255;27;20620;-56
2022/11/03 13:35:40;;;;;;;9.02;3.50;;;;;;;;;;5083894;28;20025;-56
2022/11/03 13:38:05;;;;;;;11.88;3.25;;;;;;;;;;5079776;28;20058;-56
2022/11/03 13:40:30;;;;;;;13.40;3.95;;;;;;;;;;5088455;28;20024;-56
2022/11/03 13:42:56;;;;;;;9.50;3.35;;;;;;;;;;5078188;28;20024;-56
2022/11/03 13:45:22;;;;;;;8.15;4.30;;;;;;;;;;5101936;27;20028;-56
2022/11/03 13:47:47;;;;;;;9.13;3.65;;;;;;;;;;5086715;28;20123;-56
2022/11/03 13:50:13;;;;;;;12.30;4.93;;;;;;;;;;5086773;28;20542;-57
2022/11/03 13:52:38;;;;;;;10.98;3.50;;;;;;;;;;5084279;28;20464;-56
2022/11/03 13:55:03;;;;;;;11.02;4.25;;;;;;;;;;5083513;28;20039;-56
2022/11/03 13:57:28;;;;;;;12.93;4.22;;;;;;;;;;5081810;28;20028;-56
2022/11/03 13:59:54;;;;;;;8.75;3.85;;;;;;;;;;5085573;28;20160;-56
2022/11/03 14:02:19;;;;;;;11.95;3.30;;;;;;;;;;5073590;28;20031;-56
2022/11/03 14:04:44;;;;;;;8.15;3.78;;;;;;;;;;5078239;28;20226;-56
2022/11/03 14:07:09;;;;;;;9.82;4.47;;;;;;;;;;5075840;28;20036;-55
2022/11/03 14:09:35;;;;;;;9.52;3.83;;;;;;;;;;5076717;28;20024;-59
2022/11/03 14:14:54;;;;;;;7.65;3.00;;;;;;;;;;5067755;28;20028;-55
2022/11/03 14:17:19;;;;;;;8.27;3.60;;;;;;;;;;5079469;28;20040;-56
2022/11/03 14:19:45;;;;;;;11.55;3.70;;;;;;;;;;5097132;28;20098;-56
2022/11/03 14:22:10;;;;;;;11.73;3.70;;;;;;;;;;5078005;28;20134;-55
2022/11/03 14:24:35;;;;;;;9.32;3.20;;;;;;;;;;5088206;28;20021;-55
2022/11/03 14:27:00;;;;;;;9.10;3.10;;;;;;;;;;5083575;28;20031;-56
2022/11/03 14:29:26;;;;;;;4.85;2.75;;;;;;;;;;5082117;28;20024;-56
2022/11/03 14:31:51;;;;;;;8.10;3.10;;;;;;;;;;5111445;27;20035;-55
2022/11/03 14:34:16;;;;;;;7.85;3.20;;;;;;;;;;5085736;28;20020;-56
2022/11/03 14:36:41;;;;;;;7.63;3.30;;;;;;;;;;5077321;28;20020;-55
2022/11/03 14:39:07;;;;;;;8.50;3.30;;;;;;;;;;5081007;28;20024;-54
2022/11/03 14:44:16;;;;;;;7.45;3.53;;;;;;;;;;5085855;28;20027;-56
2022/11/03 14:46:41;;;;;;;6.95;3.38;;;;;;;;;;5079572;28;20635;-55
2022/11/03 14:49:07;;;;;;;6.32;3.40;;;;;;;;;;5082891;28;20020;-55
2022/11/03 14:51:33;;;;;;;8.73;3.35;;;;;;;;;;5079493;28;20107;-56
2022/11/03 14:53:58;;;;;;;11.27;3.67;;;;;;;;;;5080098;28;20111;-59